sensor_id;sensor_type;location;lat;lon;timestamp;P1;durP1;ratioP1;P2;durP2;ratioP2
21337;SDS011;10827;50.878;4.382;2022-10-16T00:01:46;2.10;;;1.20;;
21337;SDS011;10827;50.878;4.382;2022-10-16T00:04:12;2.27;;;1.40;;
21337;SDS011;10827;50.878;4.382;2022-10-16T00:06:38;1.27;;;1.07;;
21337;SDS011;10827;50.878;4.382;2022-10-16T00:09:04;2.90;;;1.20;;
21337;SDS011;10827;50.878;4.382;2022-10-16T00:11:31;2.63;;;1.30;;
21337;SDS011;10827;50.878;4.382;2022-10-16T00:14:03;1.93;;;1.30;;
21337;SDS011;10827;50.878;4.382;2022-10-16T00:16:31;2.43;;;1.20;;
21337;SDS011;10827;50.878;4.382;2022-10-16T00:18:57;2.00;;;1.53;;
21337;SDS011;10827;50.878;4.382;2022-10-16T00:21:25;4.23;;;1.40;;
21337;SDS011;10827;50.878;4.382;2022-10-16T00:23:57;3.30;;;1.17;;
21337;SDS011;10827;50.878;4.382;2022-10-16T00:26:27;1.93;;;1.43;;
21337;SDS011;10827;50.878;4.382;2022-10-16T00:28:54;1.60;;;1.30;;
21337;SDS011;10827;50.878;4.382;2022-10-16T00:31:21;1.97;;;1.30;;
21337;SDS011;10827;50.878;4.382;2022-10-16T00:33:48;1.97;;;1.43;;
21337;SDS011;10827;50.878;4.382;2022-10-16T00:36:16;2.13;;;1.50;;
21337;SDS011;10827;50.878;4.382;2022-10-16T00:38:43;3.43;;;1.73;;
21337;SDS011;10827;50.878;4.382;2022-10-16T00:41:11;3.13;;;1.30;;
21337;SDS011;10827;50.878;4.382;2022-10-16T00:43:50;5.20;;;1.63;;
21337;SDS011;10827;50.878;4.382;2022-10-16T00:49:03;3.63;;;1.63;;
21337;SDS011;10827;50.878;4.382;2022-10-16T00:51:35;5.80;;;1.50;;
21337;SDS011;10827;50.878;4.382;2022-10-16T00:54:10;2.17;;;1.30;;
21337;SDS011;10827;50.878;4.382;2022-10-16T00:56:40;2.67;;;1.50;;
21337;SDS011;10827;50.878;4.382;2022-10-16T00:59:11;4.23;;;1.73;;
21337;SDS011;10827;50.878;4.382;2022-10-16T01:01:41;1.90;;;1.40;;
21337;SDS011;10827;50.878;4.382;2022-10-16T01:04:07;3.47;;;1.80;;
21337;SDS011;10827;50.878;4.382;2022-10-16T01:06:39;2.03;;;1.30;;
21337;SDS011;10827;50.878;4.382;2022-10-16T01:11:45;3.80;;;1.60;;
21337;SDS011;10827;50.878;4.382;2022-10-16T01:14:27;2.53;;;1.43;;
21337;SDS011;10827;50.878;4.382;2022-10-16T01:17:07;3.53;;;1.60;;
21337;SDS011;10827;50.878;4.382;2022-10-16T01:20:11;1.93;;;1.37;;
21337;SDS011;10827;50.878;4.382;2022-10-16T01:28:46;1.83;;;1.40;;
21337;SDS011;10827;50.878;4.382;2022-10-16T01:31:19;3.93;;;1.70;;
21337;SDS011;10827;50.878;4.382;2022-10-16T01:33:51;4.33;;;1.87;;
21337;SDS011;10827;50.878;4.382;2022-10-16T01:36:40;4.47;;;1.53;;
21337;SDS011;10827;50.878;4.382;2022-10-16T01:39:28;2.40;;;1.60;;
21337;SDS011;10827;50.878;4.382;2022-10-16T01:42:20;4.23;;;1.80;;
21337;SDS011;10827;50.878;4.382;2022-10-16T01:44:49;5.57;;;1.70;;
21337;SDS011;10827;50.878;4.382;2022-10-16T01:47:17;4.27;;;1.90;;
21337;SDS011;10827;50.878;4.382;2022-10-16T01:49:47;3.27;;;1.60;;
21337;SDS011;10827;50.878;4.382;2022-10-16T01:52:15;4.17;;;1.70;;
21337;SDS011;10827;50.878;4.382;2022-10-16T01:54:45;3.17;;;1.83;;
21337;SDS011;10827;50.878;4.382;2022-10-16T01:57:13;5.10;;;1.63;;
21337;SDS011;10827;50.878;4.382;2022-10-16T01:59:46;4.13;;;1.60;;
21337;SDS011;10827;50.878;4.382;2022-10-16T02:02:14;3.77;;;1.60;;
21337;SDS011;10827;50.878;4.382;2022-10-16T02:04:43;2.13;;;1.60;;
21337;SDS011;10827;50.878;4.382;2022-10-16T02:07:18;7.90;;;1.70;;
21337;SDS011;10827;50.878;4.382;2022-10-16T02:09:44;2.03;;;1.50;;
21337;SDS011;10827;50.878;4.382;2022-10-16T02:12:30;2.00;;;1.50;;
21337;SDS011;10827;50.878;4.382;2022-10-16T02:14:59;4.77;;;1.73;;
21337;SDS011;10827;50.878;4.382;2022-10-16T02:17:25;3.10;;;1.70;;
21337;SDS011;10827;50.878;4.382;2022-10-16T02:19:52;3.00;;;1.60;;
21337;SDS011;10827;50.878;4.382;2022-10-16T02:22:28;4.03;;;1.97;;
21337;SDS011;10827;50.878;4.382;2022-10-16T02:27:33;5.10;;;2.00;;
21337;SDS011;10827;50.878;4.382;2022-10-16T02:30:24;3.47;;;2.10;;
21337;SDS011;10827;50.878;4.382;2022-10-16T02:33:10;3.80;;;1.73;;
21337;SDS011;10827;50.878;4.382;2022-10-16T02:35:38;1.93;;;1.53;;
21337;SDS011;10827;50.878;4.382;2022-10-16T02:38:06;7.27;;;2.10;;
21337;SDS011;10827;50.878;4.382;2022-10-16T02:40:33;2.53;;;1.60;;
21337;SDS011;10827;50.878;4.382;2022-10-16T02:42:59;2.33;;;1.80;;
21337;SDS011;10827;50.878;4.382;2022-10-16T02:45:25;2.83;;;1.80;;
21337;SDS011;10827;50.878;4.382;2022-10-16T02:47:51;7.17;;;2.13;;
21337;SDS011;10827;50.878;4.382;2022-10-16T02:50:17;2.67;;;1.77;;
21337;SDS011;10827;50.878;4.382;2022-10-16T02:52:43;3.07;;;1.87;;
21337;SDS011;10827;50.878;4.382;2022-10-16T02:55:10;6.40;;;1.90;;
21337;SDS011;10827;50.878;4.382;2022-10-16T02:57:36;6.70;;;1.90;;
21337;SDS011;10827;50.878;4.382;2022-10-16T03:00:03;6.90;;;2.10;;
21337;SDS011;10827;50.878;4.382;2022-10-16T03:02:30;4.40;;;2.13;;
21337;SDS011;10827;50.878;4.382;2022-10-16T03:04:56;3.20;;;1.90;;
21337;SDS011;10827;50.878;4.382;2022-10-16T03:07:22;3.17;;;2.20;;
21337;SDS011;10827;50.878;4.382;2022-10-16T03:09:49;5.67;;;2.03;;
21337;SDS011;10827;50.878;4.382;2022-10-16T03:12:14;4.07;;;2.07;;
21337;SDS011;10827;50.878;4.382;2022-10-16T03:14:40;6.23;;;2.20;;
21337;SDS011;10827;50.878;4.382;2022-10-16T03:17:06;4.27;;;2.00;;
21337;SDS011;10827;50.878;4.382;2022-10-16T03:19:31;4.03;;;1.83;;
21337;SDS011;10827;50.878;4.382;2022-10-16T03:21:57;3.90;;;2.20;;
21337;SDS011;10827;50.878;4.382;2022-10-16T03:24:23;4.50;;;2.20;;
21337;SDS011;10827;50.878;4.382;2022-10-16T03:26:49;4.47;;;1.97;;
21337;SDS011;10827;50.878;4.382;2022-10-16T03:29:15;2.67;;;2.17;;
21337;SDS011;10827;50.878;4.382;2022-10-16T03:31:40;11.70;;;2.73;;
21337;SDS011;10827;50.878;4.382;2022-10-16T03:34:06;3.07;;;1.80;;
21337;SDS011;10827;50.878;4.382;2022-10-16T03:36:32;3.77;;;2.07;;
21337;SDS011;10827;50.878;4.382;2022-10-16T03:39:00;6.67;;;2.30;;
21337;SDS011;10827;50.878;4.382;2022-10-16T03:41:26;5.47;;;2.10;;
21337;SDS011;10827;50.878;4.382;2022-10-16T03:43:51;14.87;;;2.20;;
21337;SDS011;10827;50.878;4.382;2022-10-16T03:46:17;10.50;;;1.90;;
21337;SDS011;10827;50.878;4.382;2022-10-16T03:48:43;2.63;;;1.73;;
21337;SDS011;10827;50.878;4.382;2022-10-16T03:51:09;3.53;;;2.10;;
21337;SDS011;10827;50.878;4.382;2022-10-16T03:53:35;3.73;;;1.90;;
21337;SDS011;10827;50.878;4.382;2022-10-16T03:56:01;1.90;;;1.50;;
21337;SDS011;10827;50.878;4.382;2022-10-16T03:58:27;5.33;;;2.30;;
21337;SDS011;10827;50.878;4.382;2022-10-16T04:00:53;3.93;;;1.90;;
21337;SDS011;10827;50.878;4.382;2022-10-16T04:03:19;3.73;;;2.10;;
21337;SDS011;10827;50.878;4.382;2022-10-16T04:05:47;3.30;;;1.63;;
21337;SDS011;10827;50.878;4.382;2022-10-16T04:08:13;5.67;;;2.30;;
21337;SDS011;10827;50.878;4.382;2022-10-16T04:10:41;3.53;;;2.13;;
21337;SDS011;10827;50.878;4.382;2022-10-16T04:13:08;2.87;;;1.80;;
21337;SDS011;10827;50.878;4.382;2022-10-16T04:15:35;6.03;;;1.90;;
21337;SDS011;10827;50.878;4.382;2022-10-16T04:18:00;4.63;;;2.07;;
21337;SDS011;10827;50.878;4.382;2022-10-16T04:20:27;3.03;;;2.33;;
21337;SDS011;10827;50.878;4.382;2022-10-16T04:22:53;4.57;;;2.10;;
21337;SDS011;10827;50.878;4.382;2022-10-16T04:25:18;8.63;;;2.23;;
21337;SDS011;10827;50.878;4.382;2022-10-16T04:27:44;4.10;;;2.23;;
21337;SDS011;10827;50.878;4.382;2022-10-16T04:30:10;3.90;;;1.77;;
21337;SDS011;10827;50.878;4.382;2022-10-16T04:32:36;4.90;;;2.10;;
21337;SDS011;10827;50.878;4.382;2022-10-16T04:35:02;6.63;;;2.37;;
21337;SDS011;10827;50.878;4.382;2022-10-16T04:37:28;3.10;;;1.80;;
21337;SDS011;10827;50.878;4.382;2022-10-16T04:39:54;4.67;;;2.00;;
21337;SDS011;10827;50.878;4.382;2022-10-16T04:42:20;6.17;;;2.07;;
21337;SDS011;10827;50.878;4.382;2022-10-16T04:44:46;4.53;;;2.00;;
21337;SDS011;10827;50.878;4.382;2022-10-16T04:47:12;4.87;;;2.13;;
21337;SDS011;10827;50.878;4.382;2022-10-16T04:49:38;7.50;;;1.97;;
21337;SDS011;10827;50.878;4.382;2022-10-16T04:52:04;3.10;;;2.20;;
21337;SDS011;10827;50.878;4.382;2022-10-16T04:54:30;4.83;;;2.00;;
21337;SDS011;10827;50.878;4.382;2022-10-16T04:56:57;7.50;;;2.20;;
21337;SDS011;10827;50.878;4.382;2022-10-16T04:59:23;5.50;;;2.20;;
21337;SDS011;10827;50.878;4.382;2022-10-16T05:01:49;4.80;;;2.10;;
21337;SDS011;10827;50.878;4.382;2022-10-16T05:04:15;6.10;;;3.87;;
21337;SDS011;10827;50.878;4.382;2022-10-16T05:06:41;3.90;;;2.30;;
21337;SDS011;10827;50.878;4.382;2022-10-16T05:09:07;4.13;;;2.37;;
21337;SDS011;10827;50.878;4.382;2022-10-16T05:11:35;5.33;;;2.03;;
21337;SDS011;10827;50.878;4.382;2022-10-16T05:14:01;10.67;;;3.30;;
21337;SDS011;10827;50.878;4.382;2022-10-16T05:16:28;8.83;;;3.73;;
21337;SDS011;10827;50.878;4.382;2022-10-16T05:18:55;4.70;;;2.17;;
21337;SDS011;10827;50.878;4.382;2022-10-16T05:21:21;4.80;;;2.10;;
21337;SDS011;10827;50.878;4.382;2022-10-16T05:23:47;4.73;;;2.50;;
21337;SDS011;10827;50.878;4.382;2022-10-16T05:26:13;6.17;;;2.17;;
21337;SDS011;10827;50.878;4.382;2022-10-16T05:28:40;12.33;;;2.33;;
21337;SDS011;10827;50.878;4.382;2022-10-16T05:31:06;4.53;;;2.67;;
21337;SDS011;10827;50.878;4.382;2022-10-16T05:33:32;4.57;;;2.40;;
21337;SDS011;10827;50.878;4.382;2022-10-16T05:36:08;4.63;;;2.40;;
21337;SDS011;10827;50.878;4.382;2022-10-16T05:38:35;8.03;;;2.87;;
21337;SDS011;10827;50.878;4.382;2022-10-16T05:41:02;5.67;;;2.50;;
21337;SDS011;10827;50.878;4.382;2022-10-16T05:43:29;6.27;;;2.50;;
21337;SDS011;10827;50.878;4.382;2022-10-16T05:45:57;5.60;;;2.97;;
21337;SDS011;10827;50.878;4.382;2022-10-16T05:48:24;4.37;;;2.20;;
21337;SDS011;10827;50.878;4.382;2022-10-16T05:50:58;5.53;;;2.30;;
21337;SDS011;10827;50.878;4.382;2022-10-16T05:53:25;4.83;;;2.77;;
21337;SDS011;10827;50.878;4.382;2022-10-16T05:55:53;7.43;;;2.70;;
21337;SDS011;10827;50.878;4.382;2022-10-16T05:58:19;3.67;;;2.57;;
21337;SDS011;10827;50.878;4.382;2022-10-16T06:00:52;6.83;;;2.60;;
21337;SDS011;10827;50.878;4.382;2022-10-16T06:03:22;4.53;;;2.30;;
21337;SDS011;10827;50.878;4.382;2022-10-16T06:05:48;9.37;;;2.70;;
21337;SDS011;10827;50.878;4.382;2022-10-16T06:08:14;8.53;;;2.70;;
21337;SDS011;10827;50.878;4.382;2022-10-16T06:10:40;4.93;;;2.87;;
21337;SDS011;10827;50.878;4.382;2022-10-16T06:13:07;4.60;;;2.40;;
21337;SDS011;10827;50.878;4.382;2022-10-16T06:15:32;3.53;;;2.20;;
21337;SDS011;10827;50.878;4.382;2022-10-16T06:17:58;6.37;;;2.63;;
21337;SDS011;10827;50.878;4.382;2022-10-16T06:20:25;6.60;;;2.83;;
21337;SDS011;10827;50.878;4.382;2022-10-16T06:22:51;7.97;;;2.80;;
21337;SDS011;10827;50.878;4.382;2022-10-16T06:25:17;7.60;;;2.70;;
21337;SDS011;10827;50.878;4.382;2022-10-16T06:27:42;8.80;;;2.40;;
21337;SDS011;10827;50.878;4.382;2022-10-16T06:30:09;9.23;;;3.20;;
21337;SDS011;10827;50.878;4.382;2022-10-16T06:32:35;8.90;;;3.20;;
21337;SDS011;10827;50.878;4.382;2022-10-16T06:35:00;8.30;;;2.40;;
21337;SDS011;10827;50.878;4.382;2022-10-16T06:37:26;9.53;;;2.57;;
21337;SDS011;10827;50.878;4.382;2022-10-16T06:39:52;5.97;;;2.70;;
21337;SDS011;10827;50.878;4.382;2022-10-16T06:42:18;10.47;;;2.90;;
21337;SDS011;10827;50.878;4.382;2022-10-16T06:44:44;3.67;;;1.90;;
21337;SDS011;10827;50.878;4.382;2022-10-16T06:47:10;5.87;;;2.63;;
21337;SDS011;10827;50.878;4.382;2022-10-16T06:49:36;7.60;;;2.43;;
21337;SDS011;10827;50.878;4.382;2022-10-16T06:52:02;5.13;;;2.60;;
21337;SDS011;10827;50.878;4.382;2022-10-16T06:54:28;9.10;;;2.80;;
21337;SDS011;10827;50.878;4.382;2022-10-16T06:56:54;4.10;;;2.57;;
21337;SDS011;10827;50.878;4.382;2022-10-16T06:59:21;6.43;;;2.67;;
21337;SDS011;10827;50.878;4.382;2022-10-16T07:01:47;4.77;;;2.90;;
21337;SDS011;10827;50.878;4.382;2022-10-16T07:04:13;8.30;;;2.57;;
21337;SDS011;10827;50.878;4.382;2022-10-16T07:06:39;6.10;;;2.60;;
21337;SDS011;10827;50.878;4.382;2022-10-16T07:09:06;9.10;;;2.90;;
21337;SDS011;10827;50.878;4.382;2022-10-16T07:11:38;9.13;;;2.70;;
21337;SDS011;10827;50.878;4.382;2022-10-16T07:14:05;5.37;;;2.60;;
21337;SDS011;10827;50.878;4.382;2022-10-16T07:16:40;6.37;;;2.33;;
21337;SDS011;10827;50.878;4.382;2022-10-16T07:19:06;5.43;;;2.43;;
21337;SDS011;10827;50.878;4.382;2022-10-16T07:21:32;8.33;;;2.80;;
21337;SDS011;10827;50.878;4.382;2022-10-16T07:24:02;7.77;;;2.43;;
21337;SDS011;10827;50.878;4.382;2022-10-16T07:26:31;4.50;;;2.67;;
21337;SDS011;10827;50.878;4.382;2022-10-16T07:28:59;6.77;;;2.80;;
21337;SDS011;10827;50.878;4.382;2022-10-16T07:31:25;6.53;;;2.80;;
21337;SDS011;10827;50.878;4.382;2022-10-16T07:33:52;4.97;;;2.23;;
21337;SDS011;10827;50.878;4.382;2022-10-16T07:36:19;9.80;;;3.17;;
21337;SDS011;10827;50.878;4.382;2022-10-16T07:38:45;4.73;;;2.83;;
21337;SDS011;10827;50.878;4.382;2022-10-16T07:41:13;4.63;;;2.50;;
21337;SDS011;10827;50.878;4.382;2022-10-16T07:43:46;8.20;;;2.90;;
21337;SDS011;10827;50.878;4.382;2022-10-16T07:46:12;7.03;;;3.03;;
21337;SDS011;10827;50.878;4.382;2022-10-16T07:48:39;8.53;;;2.47;;
21337;SDS011;10827;50.878;4.382;2022-10-16T07:51:06;5.80;;;2.90;;
21337;SDS011;10827;50.878;4.382;2022-10-16T07:53:32;6.77;;;2.83;;
21337;SDS011;10827;50.878;4.382;2022-10-16T07:55:59;8.50;;;2.40;;
21337;SDS011;10827;50.878;4.382;2022-10-16T07:58:26;5.33;;;2.47;;
21337;SDS011;10827;50.878;4.382;2022-10-16T08:00:53;4.77;;;2.70;;
21337;SDS011;10827;50.878;4.382;2022-10-16T08:03:19;5.93;;;2.47;;
21337;SDS011;10827;50.878;4.382;2022-10-16T08:05:45;8.30;;;2.23;;
21337;SDS011;10827;50.878;4.382;2022-10-16T08:08:14;7.23;;;2.53;;
21337;SDS011;10827;50.878;4.382;2022-10-16T08:10:41;7.93;;;2.57;;
21337;SDS011;10827;50.878;4.382;2022-10-16T08:13:07;5.70;;;2.57;;
21337;SDS011;10827;50.878;4.382;2022-10-16T08:15:33;6.53;;;2.60;;
21337;SDS011;10827;50.878;4.382;2022-10-16T08:18:00;13.00;;;3.00;;
21337;SDS011;10827;50.878;4.382;2022-10-16T08:20:27;3.83;;;2.47;;
21337;SDS011;10827;50.878;4.382;2022-10-16T08:22:54;6.03;;;2.90;;
21337;SDS011;10827;50.878;4.382;2022-10-16T08:25:21;6.53;;;2.60;;
21337;SDS011;10827;50.878;4.382;2022-10-16T08:27:48;6.43;;;2.90;;
21337;SDS011;10827;50.878;4.382;2022-10-16T08:30:15;5.27;;;2.50;;
21337;SDS011;10827;50.878;4.382;2022-10-16T08:32:42;6.67;;;2.73;;
21337;SDS011;10827;50.878;4.382;2022-10-16T08:35:08;7.13;;;2.03;;
21337;SDS011;10827;50.878;4.382;2022-10-16T08:37:35;3.53;;;2.40;;
21337;SDS011;10827;50.878;4.382;2022-10-16T08:40:01;8.40;;;2.23;;
21337;SDS011;10827;50.878;4.382;2022-10-16T08:42:34;8.40;;;2.43;;
21337;SDS011;10827;50.878;4.382;2022-10-16T08:45:21;3.23;;;1.90;;
21337;SDS011;10827;50.878;4.382;2022-10-16T08:50:48;3.63;;;1.93;;
21337;SDS011;10827;50.878;4.382;2022-10-16T08:53:18;7.73;;;2.40;;
21337;SDS011;10827;50.878;4.382;2022-10-16T08:55:52;7.90;;;2.40;;
21337;SDS011;10827;50.878;4.382;2022-10-16T08:58:29;4.40;;;1.93;;
21337;SDS011;10827;50.878;4.382;2022-10-16T09:01:00;7.00;;;2.50;;
21337;SDS011;10827;50.878;4.382;2022-10-16T09:08:38;5.13;;;1.73;;
21337;SDS011;10827;50.878;4.382;2022-10-16T09:14:29;6.87;;;2.00;;
21337;SDS011;10827;50.878;4.382;2022-10-16T09:25:39;8.03;;;2.23;;
21337;SDS011;10827;50.878;4.382;2022-10-16T09:28:09;6.03;;;2.57;;
21337;SDS011;10827;50.878;4.382;2022-10-16T09:30:35;7.77;;;2.10;;
21337;SDS011;10827;50.878;4.382;2022-10-16T09:33:02;8.10;;;2.27;;
21337;SDS011;10827;50.878;4.382;2022-10-16T09:35:39;8.67;;;2.00;;
21337;SDS011;10827;50.878;4.382;2022-10-16T09:43:46;7.73;;;2.40;;
21337;SDS011;10827;50.878;4.382;2022-10-16T09:48:53;5.87;;;2.03;;
21337;SDS011;10827;50.878;4.382;2022-10-16T09:51:23;9.73;;;2.30;;
21337;SDS011;10827;50.878;4.382;2022-10-16T09:53:54;6.87;;;2.40;;
21337;SDS011;10827;50.878;4.382;2022-10-16T09:56:32;6.50;;;2.03;;
21337;SDS011;10827;50.878;4.382;2022-10-16T09:59:17;7.53;;;1.90;;
21337;SDS011;10827;50.878;4.382;2022-10-16T10:01:45;4.47;;;1.83;;
21337;SDS011;10827;50.878;4.382;2022-10-16T10:04:14;9.20;;;2.00;;
21337;SDS011;10827;50.878;4.382;2022-10-16T10:06:41;7.33;;;2.00;;
21337;SDS011;10827;50.878;4.382;2022-10-16T10:16:49;5.30;;;1.83;;
21337;SDS011;10827;50.878;4.382;2022-10-16T10:19:23;6.03;;;1.43;;
21337;SDS011;10827;50.878;4.382;2022-10-16T10:21:51;6.97;;;1.73;;
21337;SDS011;10827;50.878;4.382;2022-10-16T10:24:17;7.77;;;3.00;;
21337;SDS011;10827;50.878;4.382;2022-10-16T10:29:39;8.20;;;2.30;;
21337;SDS011;10827;50.878;4.382;2022-10-16T10:32:28;13.00;;;2.70;;
21337;SDS011;10827;50.878;4.382;2022-10-16T10:35:25;7.37;;;2.33;;
21337;SDS011;10827;50.878;4.382;2022-10-16T10:45:41;6.63;;;2.30;;
21337;SDS011;10827;50.878;4.382;2022-10-16T10:51:04;10.80;;;2.33;;
21337;SDS011;10827;50.878;4.382;2022-10-16T11:02:07;8.80;;;2.40;;
21337;SDS011;10827;50.878;4.382;2022-10-16T11:07:32;4.45;;;1.55;;
21337;SDS011;10827;50.878;4.382;2022-10-16T11:12:39;7.63;;;1.80;;
21337;SDS011;10827;50.878;4.382;2022-10-16T11:15:15;3.87;;;1.87;;
21337;SDS011;10827;50.878;4.382;2022-10-16T11:17:51;2.87;;;1.60;;
21337;SDS011;10827;50.878;4.382;2022-10-16T11:20:40;3.83;;;1.50;;
21337;SDS011;10827;50.878;4.382;2022-10-16T11:23:21;3.90;;;1.93;;
21337;SDS011;10827;50.878;4.382;2022-10-16T11:25:51;6.57;;;1.70;;
21337;SDS011;10827;50.878;4.382;2022-10-16T11:28:26;2.83;;;1.63;;
21337;SDS011;10827;50.878;4.382;2022-10-16T11:31:11;7.95;;;1.70;;
21337;SDS011;10827;50.878;4.382;2022-10-16T11:47:27;4.95;;;1.60;;
21337;SDS011;10827;50.878;4.382;2022-10-16T11:52:59;5.22;;;1.80;;
21337;SDS011;10827;50.878;4.382;2022-10-16T11:55:39;6.95;;;1.63;;
21337;SDS011;10827;50.878;4.382;2022-10-16T11:58:13;8.07;;;1.88;;
21337;SDS011;10827;50.878;4.382;2022-10-16T12:06:36;5.15;;;3.03;;
21337;SDS011;10827;50.878;4.382;2022-10-16T12:09:11;4.53;;;1.73;;
21337;SDS011;10827;50.878;4.382;2022-10-16T12:11:56;3.45;;;1.70;;
21337;SDS011;10827;50.878;4.382;2022-10-16T12:17:22;4.78;;;1.50;;
21337;SDS011;10827;50.878;4.382;2022-10-16T12:19:57;5.28;;;1.38;;
21337;SDS011;10827;50.878;4.382;2022-10-16T12:22:26;5.45;;;1.42;;
21337;SDS011;10827;50.878;4.382;2022-10-16T12:24:53;3.88;;;1.45;;
21337;SDS011;10827;50.878;4.382;2022-10-16T12:27:24;5.38;;;1.40;;
21337;SDS011;10827;50.878;4.382;2022-10-16T12:29:57;3.78;;;1.50;;
21337;SDS011;10827;50.878;4.382;2022-10-16T12:32:29;3.25;;;1.30;;
21337;SDS011;10827;50.878;4.382;2022-10-16T12:34:57;3.55;;;1.52;;
21337;SDS011;10827;50.878;4.382;2022-10-16T12:37:25;4.15;;;1.83;;
21337;SDS011;10827;50.878;4.382;2022-10-16T12:39:58;6.22;;;1.73;;
21337;SDS011;10827;50.878;4.382;2022-10-16T12:42:35;2.85;;;1.40;;
21337;SDS011;10827;50.878;4.382;2022-10-16T12:45:12;3.55;;;1.55;;
21337;SDS011;10827;50.878;4.382;2022-10-16T12:47:54;5.82;;;1.98;;
21337;SDS011;10827;50.878;4.382;2022-10-16T12:50:39;3.38;;;1.30;;
21337;SDS011;10827;50.878;4.382;2022-10-16T13:01:39;6.78;;;1.45;;
21337;SDS011;10827;50.878;4.382;2022-10-16T13:15:41;2.90;;;1.00;;
21337;SDS011;10827;50.878;4.382;2022-10-16T13:23:29;3.65;;;1.20;;
21337;SDS011;10827;50.878;4.382;2022-10-16T13:28:28;3.15;;;1.40;;
21337;SDS011;10827;50.878;4.382;2022-10-16T13:30:57;4.65;;;1.50;;
21337;SDS011;10827;50.878;4.382;2022-10-16T13:36:04;4.00;;;1.13;;
21337;SDS011;10827;50.878;4.382;2022-10-16T13:38:32;6.32;;;1.52;;
21337;SDS011;10827;50.878;4.382;2022-10-16T13:41:03;3.50;;;1.50;;
21337;SDS011;10827;50.878;4.382;2022-10-16T13:43:41;4.07;;;1.50;;
21337;SDS011;10827;50.878;4.382;2022-10-16T13:46:13;4.65;;;1.85;;
21337;SDS011;10827;50.878;4.382;2022-10-16T13:48:39;3.53;;;1.55;;
21337;SDS011;10827;50.878;4.382;2022-10-16T13:53:32;7.70;;;1.67;;
21337;SDS011;10827;50.878;4.382;2022-10-16T13:55:59;8.90;;;1.60;;
21337;SDS011;10827;50.878;4.382;2022-10-16T13:58:28;2.72;;;1.35;;
21337;SDS011;10827;50.878;4.382;2022-10-16T14:00:58;9.18;;;1.73;;
21337;SDS011;10827;50.878;4.382;2022-10-16T14:03:26;3.53;;;1.35;;
21337;SDS011;10827;50.878;4.382;2022-10-16T14:05:54;14.20;;;1.90;;
21337;SDS011;10827;50.878;4.382;2022-10-16T14:08:24;3.75;;;1.38;;
21337;SDS011;10827;50.878;4.382;2022-10-16T14:10:55;4.30;;;1.50;;
21337;SDS011;10827;50.878;4.382;2022-10-16T14:13:34;4.28;;;1.50;;
21337;SDS011;10827;50.878;4.382;2022-10-16T14:16:25;2.58;;;1.48;;
21337;SDS011;10827;50.878;4.382;2022-10-16T14:18:55;3.13;;;2.13;;
21337;SDS011;10827;50.878;4.382;2022-10-16T14:21:26;3.08;;;1.52;;
21337;SDS011;10827;50.878;4.382;2022-10-16T14:23:51;4.68;;;1.70;;
21337;SDS011;10827;50.878;4.382;2022-10-16T14:26:19;5.03;;;1.88;;
21337;SDS011;10827;50.878;4.382;2022-10-16T14:28:47;9.02;;;1.88;;
21337;SDS011;10827;50.878;4.382;2022-10-16T14:31:30;2.05;;;1.27;;
21337;SDS011;10827;50.878;4.382;2022-10-16T14:33:59;3.38;;;1.50;;
21337;SDS011;10827;50.878;4.382;2022-10-16T14:36:26;4.82;;;1.63;;
21337;SDS011;10827;50.878;4.382;2022-10-16T14:41:21;6.38;;;1.70;;
21337;SDS011;10827;50.878;4.382;2022-10-16T14:43:50;5.00;;;1.58;;
21337;SDS011;10827;50.878;4.382;2022-10-16T14:46:19;6.45;;;1.55;;
21337;SDS011;10827;50.878;4.382;2022-10-16T14:48:51;4.00;;;1.30;;
21337;SDS011;10827;50.878;4.382;2022-10-16T14:51:23;5.43;;;1.40;;
21337;SDS011;10827;50.878;4.382;2022-10-16T14:53:49;4.65;;;1.42;;
21337;SDS011;10827;50.878;4.382;2022-10-16T14:56:21;4.38;;;1.70;;
21337;SDS011;10827;50.878;4.382;2022-10-16T14:58:52;8.75;;;3.17;;
21337;SDS011;10827;50.878;4.382;2022-10-16T15:01:19;7.10;;;1.90;;
21337;SDS011;10827;50.878;4.382;2022-10-16T15:03:44;7.20;;;1.85;;
21337;SDS011;10827;50.878;4.382;2022-10-16T15:06:11;2.72;;;1.75;;
21337;SDS011;10827;50.878;4.382;2022-10-16T15:08:39;7.50;;;1.73;;
21337;SDS011;10827;50.878;4.382;2022-10-16T15:11:07;7.55;;;2.17;;
21337;SDS011;10827;50.878;4.382;2022-10-16T15:13:43;7.82;;;2.15;;
21337;SDS011;10827;50.878;4.382;2022-10-16T15:16:13;5.57;;;1.88;;
21337;SDS011;10827;50.878;4.382;2022-10-16T15:18:40;3.90;;;1.80;;
21337;SDS011;10827;50.878;4.382;2022-10-16T15:21:06;2.97;;;1.80;;
21337;SDS011;10827;50.878;4.382;2022-10-16T15:23:32;7.65;;;1.65;;
21337;SDS011;10827;50.878;4.382;2022-10-16T15:25:58;5.05;;;2.28;;
21337;SDS011;10827;50.878;4.382;2022-10-16T15:28:25;5.13;;;2.42;;
21337;SDS011;10827;50.878;4.382;2022-10-16T15:30:52;8.15;;;4.55;;
21337;SDS011;10827;50.878;4.382;2022-10-16T15:33:20;11.32;;;2.90;;
21337;SDS011;10827;50.878;4.382;2022-10-16T15:35:48;11.43;;;3.20;;
21337;SDS011;10827;50.878;4.382;2022-10-16T15:38:15;7.10;;;2.53;;
21337;SDS011;10827;50.878;4.382;2022-10-16T15:40:42;6.88;;;2.35;;
21337;SDS011;10827;50.878;4.382;2022-10-16T15:43:08;5.30;;;2.03;;
21337;SDS011;10827;50.878;4.382;2022-10-16T15:45:34;5.75;;;2.20;;
21337;SDS011;10827;50.878;4.382;2022-10-16T15:48:01;6.47;;;2.40;;
21337;SDS011;10827;50.878;4.382;2022-10-16T15:50:27;8.80;;;2.85;;
21337;SDS011;10827;50.878;4.382;2022-10-16T15:52:53;6.15;;;2.90;;
21337;SDS011;10827;50.878;4.382;2022-10-16T15:55:18;10.57;;;3.97;;
21337;SDS011;10827;50.878;4.382;2022-10-16T15:57:44;8.90;;;4.18;;
21337;SDS011;10827;50.878;4.382;2022-10-16T16:00:13;12.82;;;5.60;;
21337;SDS011;10827;50.878;4.382;2022-10-16T16:02:40;14.93;;;8.05;;
21337;SDS011;10827;50.878;4.382;2022-10-16T16:05:07;19.73;;;8.10;;
21337;SDS011;10827;50.878;4.382;2022-10-16T16:07:35;13.80;;;6.32;;
21337;SDS011;10827;50.878;4.382;2022-10-16T16:10:02;10.68;;;5.32;;
21337;SDS011;10827;50.878;4.382;2022-10-16T16:12:29;10.00;;;3.38;;
21337;SDS011;10827;50.878;4.382;2022-10-16T16:14:55;13.80;;;4.82;;
21337;SDS011;10827;50.878;4.382;2022-10-16T16:17:20;15.90;;;7.40;;
21337;SDS011;10827;50.878;4.382;2022-10-16T16:19:46;11.70;;;5.20;;
21337;SDS011;10827;50.878;4.382;2022-10-16T16:22:12;7.88;;;3.53;;
21337;SDS011;10827;50.878;4.382;2022-10-16T16:24:38;7.35;;;3.15;;
21337;SDS011;10827;50.878;4.382;2022-10-16T16:27:04;7.68;;;3.40;;
21337;SDS011;10827;50.878;4.382;2022-10-16T16:29:32;7.53;;;3.40;;
21337;SDS011;10827;50.878;4.382;2022-10-16T16:31:58;11.02;;;3.35;;
21337;SDS011;10827;50.878;4.382;2022-10-16T16:34:25;11.35;;;3.45;;
21337;SDS011;10827;50.878;4.382;2022-10-16T16:36:52;8.93;;;3.25;;
21337;SDS011;10827;50.878;4.382;2022-10-16T16:39:19;11.07;;;3.78;;
21337;SDS011;10827;50.878;4.382;2022-10-16T16:41:44;12.05;;;3.97;;
21337;SDS011;10827;50.878;4.382;2022-10-16T16:44:11;13.60;;;3.90;;
21337;SDS011;10827;50.878;4.382;2022-10-16T16:46:37;11.98;;;3.90;;
21337;SDS011;10827;50.878;4.382;2022-10-16T16:49:04;11.30;;;3.53;;
21337;SDS011;10827;50.878;4.382;2022-10-16T16:51:31;10.88;;;4.03;;
21337;SDS011;10827;50.878;4.382;2022-10-16T16:53:57;13.75;;;5.05;;
21337;SDS011;10827;50.878;4.382;2022-10-16T16:56:24;14.82;;;5.72;;
21337;SDS011;10827;50.878;4.382;2022-10-16T16:58:51;9.65;;;4.80;;
21337;SDS011;10827;50.878;4.382;2022-10-16T17:01:19;8.02;;;4.35;;
21337;SDS011;10827;50.878;4.382;2022-10-16T17:03:45;6.50;;;3.45;;
21337;SDS011;10827;50.878;4.382;2022-10-16T17:06:12;7.78;;;4.82;;
21337;SDS011;10827;50.878;4.382;2022-10-16T17:08:39;9.45;;;4.82;;
21337;SDS011;10827;50.878;4.382;2022-10-16T17:11:05;14.18;;;5.45;;
21337;SDS011;10827;50.878;4.382;2022-10-16T17:13:36;11.10;;;6.78;;
21337;SDS011;10827;50.878;4.382;2022-10-16T17:16:03;14.50;;;6.50;;